Time;durP1;ratioP1;P1;durP2;ratioP2;P2;SDS_P1;SDS_P2;PMS_P1;PMS_P2;Temp;Humidity;BMP_temperature;BMP_pressure;BME280_temperature;BME280_humidity;BME280_pressure;Samples;Min_cycle;Max_cycle;Signal;HPM_P1;HPM_P2
2021/12/13 00:01:47;;;;;;;15.65;7.70;;;6.00;58.40;;;;;;4899171;29;20070;-85
2021/12/13 00:04:46;;;;;;;16.50;7.45;;;5.90;58.20;;;;;;4915609;29;20388;-85
2021/12/13 00:10:45;;;;;;;15.27;7.65;;;5.90;58.70;;;;;;5006690;23;20114;-88
2021/12/13 00:13:19;;;;;;;15.07;7.28;;;6.50;56.70;;;;;;5013424;28;20073;-84
2021/12/13 00:18:30;;;;;;;15.60;7.38;;;6.40;56.60;;;;;;5019625;22;20046;-82
2021/12/13 00:21:05;;;;;;;13.87;7.00;;;6.90;56.40;;;;;;5016566;28;20033;-85
2021/12/13 00:23:56;;;;;;;13.57;6.43;;;6.50;56.20;;;;;;4999892;28;20303;-85
2021/12/13 00:26:34;;;;;;;11.82;6.10;;;6.70;56.90;;;;;;4937858;29;20035;-82
2021/12/13 00:29:10;;;;;;;14.00;6.93;;;6.40;56.80;;;;;;4972562;28;20419;-83
2021/12/13 00:32:24;;;;;;;10.85;6.60;;;7.00;56.20;;;;;;4953639;29;20148;-82
2021/12/13 00:34:55;;;;;;;11.85;6.53;;;7.00;55.60;;;;;;4938066;29;20047;-94
2021/12/13 00:37:42;;;;;;;12.05;7.15;;;6.40;56.20;;;;;;4946155;29;20040;-82
2021/12/13 00:40:16;;;;;;;12.07;6.75;;;6.60;56.80;;;;;;4956485;29;20032;-84
2021/12/13 00:42:53;;;;;;;12.18;5.68;;;6.60;56.10;;;;;;4972566;28;20122;-80
2021/12/13 00:45:23;;;;;;;12.50;6.57;;;6.80;55.90;;;;;;4956594;29;20028;-83
2021/12/13 00:47:50;;;;;;;14.93;6.82;;;6.20;56.80;;;;;;4964121;28;20482;-85
2021/12/13 00:50:53;;;;;;;12.48;6.45;;;6.60;56.90;;;;;;4956974;29;20034;-81
2021/12/13 00:53:22;;;;;;;11.95;6.50;;;6.60;56.10;;;;;;4940273;29;20121;-84
2021/12/13 00:55:49;;;;;;;13.65;6.93;;;6.70;56.00;;;;;;4940654;29;20036;-84
2021/12/13 00:58:23;;;;;;;13.65;6.65;;;6.60;55.90;;;;;;4956177;29;20039;-83
2021/12/13 01:00:55;;;;;;;11.68;6.22;;;6.80;56.30;;;;;;4953637;29;20023;-86
2021/12/13 01:03:27;;;;;;;12.90;7.30;;;6.20;56.40;;;;;;4985983;28;20045;-84
2021/12/13 01:06:36;;;;;;;10.48;5.95;;;6.40;57.20;;;;;;5016360;28;20384;-85
2021/12/13 01:09:58;;;;;;;15.02;7.20;;;6.40;56.60;;;;;;5016904;28;20034;-89
2021/12/13 01:12:25;;;;;;;10.88;6.47;;;6.50;56.10;;;;;;5012786;28;20022;-83
2021/12/13 01:15:13;;;;;;;12.48;6.45;;;6.40;56.40;;;;;;5016130;28;20029;-83
2021/12/13 01:17:54;;;;;;;12.32;6.07;;;6.50;56.60;;;;;;5016475;28;20042;-84
2021/12/13 01:20:55;;;;;;;12.73;6.30;;;7.00;55.50;;;;;;4983285;28;20100;-91
2021/12/13 01:23:39;;;;;;;12.85;6.47;;;7.40;54.60;;;;;;5012361;28;20042;-83
2021/12/13 01:26:36;;;;;;;13.43;6.10;;;7.30;54.30;;;;;;4998432;28;20109;-84
2021/12/13 01:29:11;;;;;;;16.63;7.00;;;7.40;54.70;;;;;;4981377;28;20061;-85
2021/12/13 01:31:41;;;;;;;11.10;6.25;;;7.40;53.90;;;;;;4978867;28;20034;-85
2021/12/13 01:34:09;;;;;;;13.10;6.45;;;7.30;54.10;;;;;;4978572;28;20430;-83
2021/12/13 01:36:48;;;;;;;15.38;6.80;;;6.90;54.70;;;;;;4978679;28;20092;-81
2021/12/13 01:39:25;;;;;;;12.57;6.10;;;6.70;55.20;;;;;;5013473;28;20030;-80
2021/12/13 01:41:59;;;;;;;12.50;6.55;;;7.10;55.10;;;;;;5015535;28;20385;-82
2021/12/13 01:44:33;;;;;;;14.93;7.22;;;7.00;54.90;;;;;;4997729;28;20026;-88
2021/12/13 01:47:07;;;;;;;14.73;7.10;;;7.10;54.60;;;;;;4984511;28;20026;-82
2021/12/13 01:49:41;;;;;;;10.90;5.78;;;7.20;54.40;;;;;;4994900;28;20041;-83
2021/12/13 01:52:51;;;;;;;12.45;6.30;;;6.80;55.00;;;;;;4996201;28;20072;-82
2021/12/13 01:55:32;;;;;;;11.88;6.55;;;6.80;55.10;;;;;;4978288;28;20043;-80
2021/12/13 02:01:10;;;;;;;13.38;6.68;;;7.00;54.40;;;;;;5013452;28;20034;-81
2021/12/13 02:04:02;;;;;;;13.95;6.45;;;6.90;55.10;;;;;;5015614;28;20084;-81
2021/12/13 02:06:41;;;;;;;12.98;7.25;;;7.10;54.70;;;;;;4998266;28;20037;-79
2021/12/13 02:09:30;;;;;;;13.73;6.68;;;7.00;54.50;;;;;;4980315;28;20027;-81
2021/12/13 02:12:00;;;;;;;13.35;6.45;;;7.20;54.40;;;;;;4978855;28;20367;-81
2021/12/13 02:14:30;;;;;;;11.45;6.20;;;7.30;53.80;;;;;;4996146;28;20490;-83
2021/12/13 02:17:08;;;;;;;13.52;7.13;;;7.20;54.40;;;;;;4994291;28;20054;-82
2021/12/13 02:19:43;;;;;;;12.25;7.05;;;6.90;54.50;;;;;;4995816;28;20080;-83
2021/12/13 02:22:20;;;;;;;17.23;7.45;;;6.30;56.10;;;;;;4991816;28;20065;-81
2021/12/13 02:24:48;;;;;;;15.65;8.38;;;6.60;55.90;;;;;;4978647;28;20052;-84
2021/12/13 02:27:14;;;;;;;12.52;6.85;;;6.60;55.10;;;;;;4995955;28;20141;-83
2021/12/13 02:29:42;;;;;;;15.80;7.68;;;6.70;55.50;;;;;;5015974;28;20037;-80
2021/12/13 02:32:10;;;;;;;14.25;7.00;;;6.50;55.70;;;;;;4998420;28;20022;-81
2021/12/13 02:34:38;;;;;;;11.82;6.22;;;6.80;55.30;;;;;;4997419;28;20389;-85
2021/12/13 02:37:05;;;;;;;11.98;6.45;;;7.00;54.50;;;;;;5014881;28;20044;-84
2021/12/13 02:39:37;;;;;;;13.88;6.30;;;7.10;54.40;;;;;;5014883;28;20026;-82
2021/12/13 02:42:17;;;;;;;10.82;6.07;;;6.80;54.30;;;;;;4997302;28;20029;-83
2021/12/13 02:44:51;;;;;;;14.40;6.45;;;6.70;55.10;;;;;;4997625;28;20112;-84
2021/12/13 02:47:38;;;;;;;12.23;6.28;;;6.90;54.30;;;;;;5000640;28;20030;-84
2021/12/13 02:50:10;;;;;;;11.60;6.35;;;6.80;55.30;;;;;;4995574;28;20030;-84
2021/12/13 02:52:38;;;;;;;15.77;8.00;;;6.70;55.30;;;;;;4996057;28;20385;-82
2021/12/13 02:55:11;;;;;;;14.35;7.13;;;7.00;54.50;;;;;;4995955;28;20092;-82
2021/12/13 02:57:49;;;;;;;16.52;7.80;;;7.20;54.00;;;;;;5009318;28;20018;-85
2021/12/13 03:00:39;;;;;;;14.00;7.00;;;7.10;54.00;;;;;;4998266;28;20049;-82
2021/12/13 03:03:23;;;;;;;12.85;6.60;;;6.60;54.30;;;;;;5012755;28;20105;-81
2021/12/13 03:05:52;;;;;;;11.52;6.28;;;6.60;55.30;;;;;;5014607;28;20465;-82
2021/12/13 03:08:56;;;;;;;12.35;6.88;;;6.50;54.50;;;;;;4998958;28;20474;-82
2021/12/13 03:11:28;;;;;;;12.73;6.05;;;6.60;55.60;;;;;;4994550;28;20048;-85
2021/12/13 03:14:14;;;;;;;13.27;6.70;;;6.90;54.70;;;;;;4993469;28;20411;-81
2021/12/13 03:16:55;;;;;;;13.70;6.85;;;7.00;54.40;;;;;;4984012;28;20047;-84
2021/12/13 03:19:39;;;;;;;14.38;6.82;;;7.00;54.30;;;;;;4996680;28;20018;-81
2021/12/13 03:25:50;;;;;;;13.95;6.85;;;7.40;53.80;;;;;;4994783;28;20397;-85
2021/12/13 03:28:54;;;;;;;14.13;6.93;;;7.60;54.00;;;;;;5013853;28;20030;-83
2021/12/13 03:31:27;;;;;;;14.00;6.88;;;7.10;54.00;;;;;;4997046;28;20124;-82
2021/12/13 03:33:58;;;;;;;12.35;7.18;;;6.30;56.20;;;;;;5013752;28;20045;-82
2021/12/13 03:36:47;;;;;;;14.63;7.78;;;6.30;56.80;;;;;;4996638;28;20022;-82
2021/12/13 03:42:57;;;;;;;17.75;8.43;;;5.70;57.70;;;;;;4994909;28;20057;-84
2021/12/13 03:45:50;;;;;;;15.25;8.00;;;5.60;58.20;;;;;;4880339;29;20444;-82
2021/12/13 03:48:19;;;;;;;14.05;7.57;;;5.50;58.50;;;;;;4897350;29;20141;-82
2021/12/13 03:50:49;;;;;;;16.25;8.35;;;5.30;58.80;;;;;;4883334;29;20033;-82
2021/12/13 03:53:21;;;;;;;19.00;9.68;;;5.20;59.20;;;;;;4897067;29;20491;-83
2021/12/13 03:55:53;;;;;;;18.25;9.88;;;5.30;58.90;;;;;;4898874;29;20032;-82
2021/12/13 03:58:22;;;;;;;16.58;8.82;;;5.40;58.70;;;;;;4902964;29;20065;-84
2021/12/13 04:00:54;;;;;;;18.90;9.70;;;5.00;59.40;;;;;;4886841;29;20044;-86
2021/12/13 04:03:21;;;;;;;17.58;8.45;;;4.90;60.00;;;;;;4884896;29;20031;-85
2021/12/13 04:05:48;;;;;;;16.52;9.07;;;5.10;59.80;;;;;;4899954;29;20029;-83
2021/12/13 04:08:21;;;;;;;18.17;9.40;;;5.10;59.80;;;;;;4901106;29;20044;-82
2021/12/13 04:10:54;;;;;;;17.05;9.18;;;5.20;59.20;;;;;;4903310;29;20051;-95
2021/12/13 04:13:42;;;;;;;18.10;8.63;;;5.20;60.00;;;;;;4905612;29;20048;-83
2021/12/13 04:16:18;;;;;;;17.33;8.75;;;5.60;59.00;;;;;;4890671;29;20068;-82
2021/12/13 04:19:11;;;;;;;16.95;8.40;;;5.80;58.50;;;;;;4888624;29;20106;-85
2021/12/13 04:21:40;;;;;;;16.52;9.00;;;5.70;58.40;;;;;;4972708;28;20042;-89
2021/12/13 04:24:17;;;;;;;19.38;10.57;;;5.50;58.90;;;;;;5005672;28;20077;-91
2021/12/13 04:26:49;;;;;;;16.75;9.02;;;5.30;58.90;;;;;;5006784;28;20060;-83
2021/12/13 04:32:52;;;;;;;19.73;9.75;;;4.80;60.40;;;;;;5043518;22;20077;-82
2021/12/13 04:35:19;;;;;;;18.05;9.60;;;4.90;60.50;;;;;;5017367;28;20468;-85
2021/12/13 04:37:48;;;;;;;21.90;10.43;;;5.00;59.60;;;;;;5016427;28;20029;-83
2021/12/13 04:40:22;;;;;;;18.05;9.93;;;4.90;60.10;;;;;;5015982;28;20044;-82
2021/12/13 04:42:59;;;;;;;20.48;10.13;;;5.40;59.80;;;;;;5016343;28;20028;-88
2021/12/13 04:45:25;;;;;;;17.98;9.65;;;5.60;58.40;;;;;;4999773;28;20022;-85
2021/12/13 04:48:05;;;;;;;18.40;10.13;;;5.40;59.00;;;;;;4998269;28;20788;-84
2021/12/13 04:50:45;;;;;;;22.90;10.85;;;5.30;59.40;;;;;;4998232;28;20109;-85
2021/12/13 04:53:45;;;;;;;18.88;10.75;;;5.30;59.40;;;;;;4997770;28;20038;-89
2021/12/13 04:56:14;;;;;;;;;;;5.60;58.90;;;;;;4999498;28;20033;-84
2021/12/13 04:58:44;;;;;;;20.13;10.55;;;5.60;58.80;;;;;;4999456;28;20000;-85
2021/12/13 05:01:47;;;;;;;21.23;11.13;;;5.80;58.40;;;;;;4999525;28;20022;-95
2021/12/13 05:04:14;;;;;;;18.95;10.07;;;6.20;57.40;;;;;;5002380;28;20041;-92
2021/12/13 05:06:41;;;;;;;22.27;10.43;;;6.50;56.30;;;;;;5016121;28;20029;-95
2021/12/13 05:09:11;;;;;;;21.67;10.15;;;6.60;56.30;;;;;;5020426;23;20515;-85
2021/12/13 05:12:13;;;;;;;23.40;11.82;;;6.20;56.70;;;;;;5006118;28;20028;-85
2021/12/13 05:17:25;;;;;;;23.83;12.45;;;5.30;58.70;;;;;;5124711;23;20108;-85
2021/12/13 05:19:59;;;;;;;20.55;10.98;;;5.00;59.50;;;;;;5009846;28;20018;-85
2021/12/13 05:22:25;;;;;;;21.85;11.80;;;4.90;60.00;;;;;;5013611;28;20116;-83
2021/12/13 05:24:55;;;;;;;24.20;12.80;;;4.80;60.00;;;;;;5001945;28;20052;-86
2021/12/13 05:27:56;;;;;;;24.73;12.77;;;4.50;60.70;;;;;;4997806;28;20022;-84
2021/12/13 05:33:09;;;;;;;26.48;13.75;;;4.20;61.70;;;;;;5046151;23;20500;-84
2021/12/13 05:35:53;;;;;;;28.30;13.68;;;4.40;61.10;;;;;;5017876;28;20028;-90
2021/12/13 05:41:24;;;;;;;30.05;15.00;;;5.10;59.20;;;;;;5016069;28;20072;-90
2021/12/13 05:47:24;;;;;;;26.45;13.75;;;5.10;59.50;;;;;;5005159;23;20029;-86
2021/12/13 05:53:31;;;;;;;28.75;14.55;;;4.90;59.70;;;;;;5025420;23;20103;-87
2021/12/13 06:05:20;;;;;;;27.17;14.57;;;4.90;60.10;;;;;;5364823;23;20065;-87
2021/12/13 06:08:13;;;;;;;28.25;13.82;;;4.80;60.00;;;;;;4965231;28;20486;-84
2021/12/13 06:11:03;;;;;;;28.38;14.68;;;4.40;61.00;;;;;;4997224;28;20057;-87
2021/12/13 06:13:44;;;;;;;29.23;15.25;;;4.40;61.50;;;;;;4997742;28;20117;-86
2021/12/13 06:16:14;;;;;;;28.95;14.77;;;4.60;61.10;;;;;;4653916;28;10000013;-89
2021/12/13 06:22:00;;;;;;;26.95;13.27;;;5.10;59.80;;;;;;5304852;22;19983;-88
2021/12/13 06:24:42;;;;;;;26.13;13.32;;;4.80;59.90;;;;;;5133952;23;20049;-90
2021/12/13 06:27:18;;;;;;;27.85;14.43;;;4.70;60.60;;;;;;4996907;28;20112;-88
2021/12/13 06:30:09;;;;;;;27.65;15.13;;;4.50;61.60;;;;;;4997340;28;20373;-89
2021/12/13 06:32:59;;;;;;;29.23;15.50;;;4.80;61.40;;;;;;4650068;28;9999629;-90
2021/12/13 06:35:34;;;;;;;27.88;14.65;;;5.10;60.90;;;;;;5024868;28;20645;-90
2021/12/13 06:42:04;;;;;;;29.05;13.70;;;5.20;61.00;;;;;;4994840;28;20375;-88
2021/12/13 06:45:18;;;;;;;29.80;14.32;;;5.10;60.50;;;;;;4977002;28;20033;-88
2021/12/13 08:05:11;;;;;;;55.78;29.50;;;6.90;58.50;;;;;;5035407;23;20103;-85
2021/12/13 08:44:46;;;;;;;28.50;15.15;;;9.20;54.20;;;;;;4862280;29;20076;-86
2021/12/13 08:47:18;;;;;;;44.83;24.08;;;10.80;51.20;;;;;;4861902;29;20037;-87
2021/12/13 08:49:55;;;;;;;28.42;16.42;;;12.10;49.40;;;;;;4846143;29;20030;-86
2021/12/13 08:52:30;;;;;;;26.80;15.23;;;13.00;48.10;;;;;;4861688;29;20501;-85
2021/12/13 08:55:01;;;;;;;25.58;14.68;;;14.00;46.30;;;;;;4880040;29;20061;-85
2021/12/13 08:57:38;;;;;;;29.35;15.82;;;15.10;45.30;;;;;;4880518;29;20142;-85
2021/12/13 09:00:26;;;;;;;23.88;12.95;;;16.10;43.50;;;;;;4880282;29;20029;-85
2021/12/13 09:03:32;;;;;;;24.52;14.40;;;16.30;42.50;;;;;;4864573;29;20029;-86
2021/12/13 09:06:01;;;;;;;22.35;13.48;;;16.20;42.60;;;;;;4827741;29;20042;-84
2021/12/13 09:08:55;;;;;;;23.00;14.25;;;17.00;42.20;;;;;;4827739;29;20483;-84
2021/12/13 09:11:27;;;;;;;24.23;13.98;;;17.20;41.70;;;;;;4827594;29;20140;-84
2021/12/13 09:14:13;;;;;;;25.50;15.60;;;17.10;42.10;;;;;;4827592;29;20084;-84
2021/12/13 09:16:54;;;;;;;27.92;15.07;;;18.10;41.10;;;;;;4829700;29;20104;-84
2021/12/13 09:19:29;;;;;;;21.95;13.30;;;18.60;40.70;;;;;;4864187;29;20029;-84
2021/12/13 09:21:58;;;;;;;22.70;13.40;;;19.30;40.00;;;;;;4864117;29;20097;-83
2021/12/13 09:24:35;;;;;;;22.75;13.98;;;19.60;39.10;;;;;;4879886;29;20148;-85
2021/12/13 09:27:31;;;;;;;22.88;13.82;;;20.00;39.40;;;;;;4879850;29;20057;-85
2021/12/13 09:33:39;;;;;;;23.70;15.00;;;19.60;39.20;;;;;;4824382;29;20555;-85
2021/12/13 09:36:06;;;;;;;22.77;14.52;;;20.20;39.10;;;;;;4808769;29;20042;-85
2021/12/13 09:42:01;;;;;;;22.88;12.90;;;19.90;38.30;;;;;;4763985;30;20092;-86
2021/12/13 09:44:55;;;;;;;22.33;13.88;;;20.00;39.20;;;;;;4769627;30;20047;-85
2021/12/13 10:01:34;;;;;;;23.98;13.68;;;19.00;40.00;;;;;;5895528;23;20487;-87
2021/12/13 11:03:08;;;;;;;21.80;14.10;;;15.40;43.40;;;;;;5263158;23;20105;-89
2021/12/13 11:05:35;;;;;;;23.45;13.23;;;14.20;45.10;;;;;;4860061;29;20033;-88
2021/12/13 11:08:03;;;;;;;22.73;13.45;;;14.00;46.10;;;;;;4860214;29;20029;-88
2021/12/13 11:10:37;;;;;;;22.92;13.05;;;14.30;45.80;;;;;;4860164;29;20026;-88
2021/12/13 11:13:27;;;;;;;22.33;13.05;;;14.60;45.60;;;;;;4861554;29;20046;-87
2021/12/13 11:21:42;;;;;;;23.45;12.65;;;12.30;48.60;;;;;;5802027;23;20016;-92
2021/12/13 11:24:57;;;;;;;19.08;11.23;;;11.60;48.90;;;;;;4857307;29;20084;-88
2021/12/13 11:27:31;;;;;;;22.35;12.32;;;11.00;50.60;;;;;;4842295;29;20390;-87
2021/12/13 11:29:59;;;;;;;21.45;11.90;;;10.90;51.00;;;;;;4841895;29;20034;-91
2021/12/13 11:32:37;;;;;;;20.67;11.65;;;10.80;51.70;;;;;;4842181;29;20030;-90
2021/12/13 11:38:55;;;;;;;21.15;11.70;;;10.90;51.20;;;;;;4834664;29;20137;-89
2021/12/13 11:41:58;;;;;;;19.52;11.23;;;10.70;51.20;;;;;;4842023;29;20109;-88
2021/12/13 12:26:57;;;;;;;25.08;12.70;;;11.10;50.70;;;;;;4862300;23;20393;-84
2021/12/13 12:33:32;;;;;;;18.40;10.07;;;10.90;50.80;;;;;;4807822;29;20046;-85
2021/12/13 12:36:24;;;;;;;16.85;10.48;;;11.00;50.90;;;;;;4806657;29;20092;-85
2021/12/13 12:42:24;;;;;;;16.60;9.48;;;10.90;51.50;;;;;;4808098;29;20749;-86
2021/12/13 12:44:56;;;;;;;17.85;10.30;;;10.90;51.00;;;;;;4792493;29;20521;-85
2021/12/13 12:47:34;;;;;;;14.52;8.95;;;11.00;50.90;;;;;;4822017;29;20406;-84
2021/12/13 12:50:17;;;;;;;17.60;9.88;;;10.90;50.60;;;;;;4822064;29;20034;-85
2021/12/13 12:52:56;;;;;;;18.37;9.90;;;11.10;50.60;;;;;;4797819;29;20026;-85
2021/12/13 12:55:35;;;;;;;16.70;9.27;;;10.90;50.60;;;;;;4840662;29;20247;-88
2021/12/13 12:58:20;;;;;;;15.57;9.80;;;10.40;50.90;;;;;;4825218;29;20298;-85
2021/12/13 13:03:50;;;;;;;17.80;9.82;;;10.70;50.90;;;;;;4837551;29;20048;-87
2021/12/13 13:06:22;;;;;;;19.45;11.18;;;10.50;51.40;;;;;;4859365;29;20025;-94
2021/12/13 13:08:51;;;;;;;17.75;10.02;;;10.60;51.40;;;;;;4859319;29;20426;-85
2021/12/13 13:19:22;;;;;;;20.70;11.00;;;10.10;52.50;;;;;;5507722;23;20584;-89
2021/12/13 13:21:50;;;;;;;18.48;10.88;;;10.00;52.80;;;;;;4844954;29;20370;-88
2021/12/13 13:24:16;;;;;;;19.25;10.45;;;9.90;52.60;;;;;;4843816;29;20120;-89
2021/12/13 13:26:44;;;;;;;20.38;11.68;;;9.70;52.80;;;;;;4843274;29;20121;-89
2021/12/13 13:29:14;;;;;;;21.40;11.25;;;9.50;53.60;;;;;;4843611;29;20057;-90
2021/12/13 13:31:50;;;;;;;19.00;10.73;;;9.40;53.80;;;;;;4842373;29;20129;-89
2021/12/13 13:42:49;;;;;;;16.05;9.98;;;9.80;52.60;;;;;;4840956;29;20053;-90
2021/12/13 13:45:18;;;;;;;17.00;9.20;;;9.80;52.60;;;;;;4843439;29;20170;-90
2021/12/13 13:47:48;;;;;;;15.05;9.05;;;9.90;52.70;;;;;;4843073;29;20057;-86
2021/12/13 13:50:27;;;;;;;15.55;9.82;;;10.00;52.00;;;;;;4843402;29;20485;-90
2021/12/13 13:53:00;;;;;;;19.63;10.50;;;9.60;52.70;;;;;;4843148;29;20050;-89
2021/12/13 13:55:40;;;;;;;17.80;9.50;;;9.10;53.30;;;;;;4858777;29;20033;-86
2021/12/13 14:01:30;;;;;;;15.75;9.57;;;9.10;54.30;;;;;;4842025;29;20413;-86
2021/12/13 14:04:26;;;;;;;17.08;9.20;;;9.20;54.00;;;;;;4842343;29;20470;-90
2021/12/13 14:06:55;;;;;;;18.58;9.82;;;9.40;53.10;;;;;;4842296;29;20041;-90
2021/12/13 14:09:25;;;;;;;16.95;10.18;;;9.20;53.20;;;;;;4842324;29;20030;-92
2021/12/13 14:11:58;;;;;;;19.65;11.75;;;9.70;53.10;;;;;;4841972;29;20034;-93
2021/12/13 14:14:39;;;;;;;25.88;15.55;;;9.70;52.30;;;;;;4841759;29;20041;-85
2021/12/13 14:17:05;;;;;;;21.48;12.02;;;9.80;52.10;;;;;;4841872;29;20022;-92
2021/12/13 14:25:52;;;;;;;19.67;11.10;;;9.90;52.60;;;;;;4842028;29;20630;-93
2021/12/13 14:28:31;;;;;;;18.98;10.25;;;10.10;51.60;;;;;;4826980;29;20057;-91
2021/12/13 14:30:59;;;;;;;19.73;11.05;;;9.90;52.50;;;;;;4826388;29;20475;-91
2021/12/13 14:33:32;;;;;;;16.23;9.70;;;10.10;52.30;;;;;;4826553;29;20065;-91
2021/12/13 14:36:03;;;;;;;17.33;9.90;;;10.10;51.90;;;;;;4841353;29;20104;-91
2021/12/13 14:38:30;;;;;;;17.60;10.48;;;10.10;51.80;;;;;;4816219;29;20067;-88
2021/12/13 14:43:45;;;;;;;21.33;11.27;;;9.90;52.50;;;;;;4867008;24;20284;-85
2021/12/13 14:46:18;;;;;;;19.65;10.93;;;10.20;52.50;;;;;;4860851;29;20040;-83
2021/12/13 14:48:46;;;;;;;20.75;11.90;;;10.10;52.30;;;;;;4861573;29;20389;-86
2021/12/13 14:51:55;;;;;;;24.67;12.40;;;9.90;53.00;;;;;;4861604;29;20571;-87
2021/12/13 14:54:26;;;;;;;22.95;12.60;;;9.90;53.20;;;;;;4807958;29;20515;-87
2021/12/13 14:56:58;;;;;;;22.42;11.73;;;9.70;53.40;;;;;;4822992;29;20042;-88
2021/12/13 14:59:24;;;;;;;21.80;12.02;;;9.60;54.00;;;;;;4819610;29;20436;-88
2021/12/13 15:01:51;;;;;;;23.50;12.85;;;9.30;54.40;;;;;;4823021;29;20064;-86
2021/12/13 15:04:24;;;;;;;25.48;13.30;;;9.40;54.60;;;;;;4822887;29;20088;-86
2021/12/13 15:07:33;;;;;;;25.33;12.95;;;9.50;54.60;;;;;;4823045;29;20097;-90
2021/12/13 15:10:18;;;;;;;21.55;12.05;;;9.70;54.20;;;;;;4786369;30;20036;-87
2021/12/13 15:13:05;;;;;;;34.40;16.90;;;9.50;54.40;;;;;;4771480;30;20038;-86
2021/12/13 15:15:38;;;;;;;30.40;16.08;;;9.20;55.00;;;;;;4786627;29;20083;-86
2021/12/13 15:18:11;;;;;;;27.33;15.25;;;9.30;55.10;;;;;;4786552;30;20490;-87
2021/12/13 15:20:50;;;;;;;40.15;20.83;;;9.20;55.50;;;;;;4786399;30;20039;-87
2021/12/13 15:23:26;;;;;;;28.73;15.23;;;9.30;55.30;;;;;;4786502;29;20039;-86
2021/12/13 15:26:09;;;;;;;27.45;15.23;;;9.40;55.00;;;;;;4786291;30;20561;-83
2021/12/13 15:28:43;;;;;;;33.15;17.58;;;9.00;55.80;;;;;;4771273;29;20042;-84
2021/12/13 15:31:13;;;;;;;29.85;16.73;;;8.70;56.70;;;;;;4768653;30;20151;-88
2021/12/13 15:33:42;;;;;;;37.05;20.17;;;8.90;56.80;;;;;;4768524;30;20109;-86
2021/12/13 15:43:50;;;;;;;42.67;23.88;;;9.40;55.60;;;;;;4841478;29;20050;-90
2021/12/13 16:01:36;;;;;;;28.67;16.02;;;8.80;56.80;;;;;;5284881;23;20061;-86
2021/12/13 16:04:12;;;;;;;30.90;16.90;;;8.40;57.80;;;;;;4846125;29;20022;-86
2021/12/13 16:06:59;;;;;;;31.77;17.77;;;8.40;57.80;;;;;;4846029;29;20101;-85
2021/12/13 16:39:44;;;;;;;38.05;19.50;;;8.00;58.90;;;;;;4838042;29;20050;-91
2021/12/13 16:42:13;;;;;;;37.40;19.83;;;8.00;58.60;;;;;;4827477;29;20030;-86
2021/12/13 16:44:45;;;;;;;34.85;17.50;;;7.60;59.70;;;;;;4827629;29;20022;-91
2021/12/13 16:47:15;;;;;;;63.33;20.83;;;7.80;59.90;;;;;;4833324;29;20038;-91
2021/12/13 16:52:40;;;;;;;32.78;17.77;;;7.90;59.40;;;;;;4870760;23;20045;-91
2021/12/13 16:55:47;;;;;;;35.78;18.13;;;7.90;58.80;;;;;;4878569;29;20563;-90
2021/12/13 16:58:15;;;;;;;34.65;18.48;;;8.00;58.70;;;;;;4875077;29;20037;-90
2021/12/13 17:00:48;;;;;;;37.83;19.13;;;8.00;58.70;;;;;;4859827;29;20026;-90
2021/12/13 17:03:22;;;;;;;36.70;18.88;;;7.80;59.20;;;;;;4859404;29;20045;-89
2021/12/13 17:05:57;;;;;;;34.42;18.95;;;7.40;59.90;;;;;;4859503;29;20230;-88
2021/12/13 17:08:31;;;;;;;39.47;19.42;;;7.10;60.70;;;;;;4844180;29;20381;-92
2021/12/13 17:11:03;;;;;;;39.00;20.33;;;7.10;60.60;;;;;;4877178;29;20063;-89
2021/12/13 17:13:54;;;;;;;107.63;52.20;;;7.30;60.60;;;;;;4859708;29;20048;-91
2021/12/13 17:16:26;;;;;;;41.85;22.10;;;7.20;60.70;;;;;;4863179;29;20029;-90
2021/12/13 17:19:13;;;;;;;36.88;20.77;;;7.40;60.30;;;;;;4877937;29;20037;-88
2021/12/13 17:21:51;;;;;;;83.40;44.53;;;7.50;60.20;;;;;;4877871;29;20060;-90
2021/12/13 17:24:27;;;;;;;46.63;24.98;;;7.80;59.40;;;;;;4877743;29;20030;-90
2021/12/13 17:27:07;;;;;;;43.05;22.80;;;7.90;59.10;;;;;;4859319;29;20034;-90
2021/12/13 17:29:45;;;;;;;54.38;26.58;;;8.00;59.40;;;;;;4858334;29;20025;-91
2021/12/13 17:32:16;;;;;;;54.17;27.48;;;7.50;59.70;;;;;;4843815;29;20034;-89
2021/12/13 17:35:14;;;;;;;50.45;26.02;;;7.20;61.10;;;;;;4843780;29;20034;-90
2021/12/13 17:37:44;;;;;;;57.05;28.30;;;7.10;61.00;;;;;;4848237;29;20018;-90
2021/12/13 17:40:19;;;;;;;84.55;41.90;;;7.30;61.30;;;;;;4877122;29;20076;-89
2021/12/13 17:42:54;;;;;;;91.72;54.22;;;7.50;60.50;;;;;;4862170;29;20021;-90
2021/12/13 17:45:22;;;;;;;49.15;27.52;;;7.60;60.60;;;;;;4861860;29;20033;-92
2021/12/13 17:48:08;;;;;;;42.63;23.75;;;7.70;59.90;;;;;;4883020;23;20191;-88
2021/12/13 17:50:40;;;;;;;60.85;31.52;;;7.40;60.60;;;;;;4843576;29;20041;-90
2021/12/13 17:53:09;;;;;;;46.00;24.33;;;7.30;60.80;;;;;;4855983;29;20026;-90
2021/12/13 17:55:44;;;;;;;47.50;25.83;;;7.70;60.00;;;;;;4824995;29;20102;-89
2021/12/13 17:58:24;;;;;;;48.03;23.67;;;7.40;60.40;;;;;;4840284;29;20110;-89
2021/12/13 18:04:02;;;;;;;44.05;23.65;;;7.30;61.00;;;;;;5258396;23;20086;-89
2021/12/13 18:06:32;;;;;;;43.25;22.13;;;7.30;60.90;;;;;;4839948;29;20034;-89
2021/12/13 18:12:10;;;;;;;49.78;27.00;;;6.40;63.00;;;;;;4869701;23;20060;-88
2021/12/13 18:17:14;;;;;;;127.90;55.17;;;6.40;63.60;;;;;;4948392;23;20057;-88
2021/12/13 18:19:48;;;;;;;68.53;34.92;;;6.30;63.20;;;;;;4866625;29;20029;-91
2021/12/13 18:22:41;;;;;;;94.60;44.92;;;6.50;63.60;;;;;;4861627;29;20045;-89
2021/12/13 18:25:35;;;;;;;91.47;39.95;;;6.50;63.20;;;;;;4861300;29;20056;-90
2021/12/13 18:28:07;;;;;;;55.03;29.33;;;6.40;63.40;;;;;;4861116;29;20029;-89
2021/12/13 18:30:51;;;;;;;57.08;29.75;;;6.20;64.20;;;;;;4854635;23;20062;-88
2021/12/13 18:33:25;;;;;;;54.97;26.58;;;6.20;64.40;;;;;;4843042;29;20048;-89
2021/12/13 18:38:40;;;;;;;56.20;27.38;;;6.10;64.60;;;;;;4848413;23;20089;-90
2021/12/13 18:41:14;;;;;;;61.55;32.88;;;6.20;64.50;;;;;;4182149;29;10000684;-88
2021/12/13 18:44:17;;;;;;;61.55;30.65;;;6.30;64.20;;;;;;4857737;29;20022;-87
2021/12/13 18:46:54;;;;;;;70.72;35.17;;;6.40;64.30;;;;;;4852979;29;20120;-89
2021/12/13 18:49:38;;;;;;;55.63;30.10;;;6.40;63.80;;;;;;4857397;29;20022;-90
2021/12/13 18:52:15;;;;;;;106.93;44.78;;;6.30;64.00;;;;;;4836108;29;20114;-92
2021/12/13 18:55:17;;;;;;;80.25;37.30;;;6.40;64.30;;;;;;4823708;29;20042;-91
2021/12/13 18:58:14;;;;;;;56.35;29.30;;;6.80;62.60;;;;;;4839041;29;20399;-93
2021/12/13 19:01:22;;;;;;;55.22;28.52;;;6.40;63.20;;;;;;4839571;29;20047;-90
2021/12/13 19:03:59;;;;;;;51.92;28.77;;;6.10;64.50;;;;;;4838990;29;20028;-91
2021/12/13 19:06:48;;;;;;;59.83;30.38;;;6.40;64.00;;;;;;4838584;29;20507;-88
2021/12/13 19:09:18;;;;;;;53.15;26.25;;;6.80;62.50;;;;;;4823284;29;20046;-89
2021/12/13 19:12:10;;;;;;;61.00;28.73;;;7.10;61.70;;;;;;4839177;29;20473;-90
2021/12/13 19:14:43;;;;;;;57.67;28.67;;;7.20;61.20;;;;;;4837315;29;20039;-91
2021/12/13 19:17:33;;;;;;;46.28;25.30;;;7.20;61.20;;;;;;4835617;29;20034;-92
2021/12/13 19:20:40;;;;;;;51.67;26.45;;;7.10;61.90;;;;;;4820256;29;20023;-92
2021/12/13 19:23:11;;;;;;;50.92;26.15;;;7.20;61.70;;;;;;4786516;30;20065;-91
2021/12/13 19:25:42;;;;;;;56.42;27.52;;;7.40;61.20;;;;;;4770878;30;20063;-89
2021/12/13 19:28:17;;;;;;;68.22;32.75;;;7.30;60.90;;;;;;4786040;29;20043;-91
2021/12/13 19:31:00;;;;;;;67.97;37.08;;;7.20;61.30;;;;;;4801090;29;20056;-91
2021/12/13 19:33:41;;;;;;;60.55;29.50;;;7.10;61.60;;;;;;4801216;29;20043;-90
2021/12/13 19:36:22;;;;;;;55.08;29.23;;;7.00;61.60;;;;;;4794564;29;20038;-90
2021/12/13 19:39:13;;;;;;;;;;;6.90;61.60;;;;;;4789634;29;20208;-89
2021/12/13 19:46:04;;;;;;;49.83;27.23;;;6.30;63.10;;;;;;4751442;30;20029;-91
2021/12/13 20:19:59;;;;;;;51.85;25.42;;;5.50;66.00;;;;;;5520455;23;20050;-93
2021/12/13 20:23:15;;;;;;;70.05;32.55;;;5.40;66.00;;;;;;4802587;29;20055;-93
2021/12/13 20:25:57;;;;;;;;;;;;;;;;;;;;;
2021/12/13 20:46:30;;;;;;;51.40;26.67;;;5.10;67.80;;;;;;5612092;23;20049;-96
2021/12/13 20:49:18;;;;;;;48.45;25.77;;;5.20;66.80;;;;;;4844695;29;20026;-91
2021/12/13 20:58:50;;;;;;;49.60;23.95;;;4.50;68.90;;;;;;4833533;29;20017;-95
2021/12/13 21:01:25;;;;;;;46.85;24.60;;;4.40;69.00;;;;;;4820201;29;20062;-95
2021/12/13 21:04:16;;;;;;;44.70;23.58;;;4.80;69.20;;;;;;4812279;29;20034;-92
2021/12/13 21:07:10;;;;;;;53.83;26.60;;;4.80;67.80;;;;;;4822794;29;20027;-94
2021/12/13 21:10:35;;;;;;;52.63;26.83;;;4.60;68.50;;;;;;4820542;29;20689;-93
2021/12/13 21:13:33;;;;;;;49.63;26.83;;;4.70;68.50;;;;;;4806916;29;20031;-92
2021/12/13 21:16:30;;;;;;;52.10;26.25;;;4.70;68.20;;;;;;4796916;29;20031;-91
2021/12/13 21:19:39;;;;;;;51.00;26.88;;;4.40;68.80;;;;;;4775868;29;20126;-91
2021/12/13 21:22:21;;;;;;;51.83;27.27;;;4.40;69.60;;;;;;4793225;29;20093;-92
2021/12/13 22:04:44;;;;;;;52.17;26.40;;;5.30;66.00;;;;;;5537285;23;20474;-90